createdAt,value
2023-01-04T00:01:26.488Z,105.30
2023-01-04T00:03:58.804Z,103.80
2023-01-04T00:06:31.202Z,100.30
2023-01-04T00:09:03.494Z,105.70
2023-01-04T00:11:35.644Z,95.80
2023-01-04T00:14:07.863Z,95.70
2023-01-04T00:16:40.341Z,85.40
2023-01-04T00:19:16.950Z,96.10
2023-01-04T00:21:49.123Z,87.60
2023-01-04T00:24:24.373Z,90.30
2023-01-04T00:26:56.660Z,83.20
2023-01-04T00:29:29.119Z,83.10
2023-01-04T00:32:01.386Z,82.40
2023-01-04T00:34:33.572Z,87.90
2023-01-04T00:37:05.671Z,78.50
2023-01-04T00:39:38.011Z,81.50
2023-01-04T00:42:10.378Z,80.80
2023-01-04T00:44:42.639Z,76.10
2023-01-04T00:47:14.673Z,97.10
2023-01-04T00:49:50.006Z,84.00
2023-01-04T00:52:22.316Z,89.00
2023-01-04T00:54:54.493Z,83.50
2023-01-04T00:57:26.762Z,83.20
2023-01-04T00:59:59.177Z,84.70
2023-01-04T01:02:32.048Z,79.80
2023-01-04T01:05:04.589Z,80.80
2023-01-04T01:07:36.822Z,84.20
2023-01-04T01:10:13.071Z,73.20
2023-01-04T01:12:47.900Z,74.70
2023-01-04T01:15:20.468Z,64.30
2023-01-04T01:17:52.660Z,69.30
2023-01-04T01:20:24.910Z,92.50
2023-01-04T01:22:57.159Z,76.80
2023-01-04T01:25:29.423Z,69.30
2023-01-04T01:28:01.629Z,63.50
2023-01-04T01:30:33.861Z,59.50
2023-01-04T01:33:06.069Z,59.50
2023-01-04T01:35:38.876Z,60.40
2023-01-04T01:38:13.897Z,60.20
2023-01-04T01:40:46.622Z,57.10
2023-01-04T01:43:22.630Z,56.40
2023-01-04T01:45:58.556Z,56.30
2023-01-04T01:48:41.184Z,45.60
2023-01-04T01:53:55.982Z,47.20
2023-01-04T01:56:31.297Z,45.50
2023-01-04T01:59:04.418Z,41.40
2023-01-04T02:01:37.461Z,39.40
2023-01-04T02:04:11.377Z,43.80
2023-01-04T02:06:48.777Z,47.90
2023-01-04T02:09:22.811Z,49.30
2023-01-04T02:11:55.047Z,43.40
2023-01-04T02:14:30.816Z,36.20
2023-01-04T02:17:12.400Z,39.00
2023-01-04T02:20:10.901Z,37.60
2023-01-04T02:23:28.558Z,41.90
2023-01-04T02:26:29.969Z,36.30
2023-01-04T02:29:20.784Z,32.70
2023-01-04T02:31:55.465Z,39.30
2023-01-04T02:34:36.418Z,43.30
2023-01-04T02:37:14.840Z,43.80
2023-01-04T02:39:57.717Z,44.50
2023-01-04T02:42:57.214Z,36.60
2023-01-04T02:45:34.721Z,42.10
2023-01-04T02:48:26.949Z,44.90
2023-01-04T02:51:01.166Z,45.00
2023-01-04T02:53:48.699Z,59.60
2023-01-04T02:56:35.856Z,63.40
2023-01-04T02:59:21.831Z,59.80
2023-01-04T03:02:20.243Z,48.40
2023-01-04T03:05:23.217Z,52.20
2023-01-04T03:08:02.520Z,51.00
2023-01-04T03:10:44.466Z,48.60
2023-01-04T03:13:23.871Z,51.60
2023-01-04T03:16:01.216Z,59.00
2023-01-04T03:18:53.071Z,59.90
2023-01-04T03:21:32.098Z,57.40
2023-01-04T03:24:25.875Z,48.00
2023-01-04T03:27:23.798Z,50.90
2023-01-04T03:30:21.633Z,51.70
2023-01-04T03:33:17.357Z,58.90
2023-01-04T03:35:57.221Z,56.20
2023-01-04T03:38:52.369Z,55.50
2023-01-04T03:41:49.003Z,63.20
2023-01-04T03:44:44.209Z,64.70
2023-01-04T03:47:43.549Z,65.60
2023-01-04T03:50:25.356Z,60.40
2023-01-04T03:53:00.113Z,51.20
2023-01-04T03:55:47.012Z,55.10
2023-01-04T03:58:20.518Z,62.10
2023-01-04T04:00:52.788Z,57.60
2023-01-04T04:03:27.624Z,49.00
2023-01-04T04:06:17.660Z,56.40
2023-01-04T04:08:56.018Z,56.40
2023-01-04T04:11:31.565Z,60.40
2023-01-04T04:14:03.863Z,58.00
2023-01-04T04:16:36.194Z,47.10
2023-01-04T04:19:09.137Z,42.80
2023-01-04T04:21:41.886Z,42.90
2023-01-04T04:24:23.331Z,44.20
2023-01-04T04:26:56.756Z,39.20
2023-01-04T04:29:28.971Z,38.50
2023-01-04T04:32:01.550Z,38.00
2023-01-04T04:34:33.966Z,43.00
2023-01-04T04:37:06.238Z,48.80
2023-01-04T04:39:38.456Z,38.00
2023-01-04T04:42:11.454Z,33.80
2023-01-04T04:44:43.711Z,35.10
2023-01-04T04:47:15.934Z,29.20
2023-01-04T04:49:51.275Z,38.50
2023-01-04T04:52:26.535Z,36.30
2023-01-04T04:54:58.627Z,32.80
2023-01-04T04:57:30.758Z,26.20
2023-01-04T05:00:03.024Z,33.30
2023-01-04T05:02:35.313Z,31.50
2023-01-04T05:05:09.209Z,29.60
2023-01-04T05:07:50.790Z,28.60
2023-01-04T05:10:23.073Z,29.70
2023-01-04T05:13:01.452Z,39.00
2023-01-04T05:15:36.027Z,37.50
2023-01-04T05:18:19.544Z,29.40
2023-01-04T05:20:51.818Z,54.70
2023-01-04T05:23:27.400Z,89.40
2023-01-04T05:26:02.431Z,66.00
2023-01-04T05:28:34.672Z,75.30
2023-01-04T05:31:06.878Z,52.10
2023-01-04T05:33:39.050Z,46.10
2023-01-04T05:36:11.482Z,45.50
2023-01-04T05:38:43.741Z,33.30
2023-01-04T05:41:29.712Z,46.90
2023-01-04T05:44:02.012Z,53.00
2023-01-04T05:46:34.297Z,54.90
2023-01-04T05:49:06.562Z,69.00
2023-01-04T05:51:38.831Z,94.90
2023-01-04T05:54:19.368Z,124.70
2023-01-04T05:56:53.676Z,69.70
2023-01-04T05:59:25.984Z,56.90
2023-01-04T06:02:01.246Z,71.80
2023-01-04T06:04:33.809Z,91.00
2023-01-04T06:07:06.082Z,58.10
2023-01-04T06:09:41.362Z,41.10
2023-01-04T06:12:14.366Z,74.40
2023-01-04T06:14:49.556Z,77.90
2023-01-04T06:17:27.667Z,48.60
2023-01-04T06:19:59.979Z,56.90
2023-01-04T06:22:33.180Z,49.20
2023-01-04T06:25:05.606Z,52.00
2023-01-04T06:27:37.808Z,34.00
2023-01-04T06:30:20.270Z,37.30
2023-01-04T06:35:25.998Z,31.80
2023-01-04T06:37:58.122Z,28.90
2023-01-04T06:40:30.329Z,35.60
2023-01-04T06:43:02.651Z,37.50
2023-01-04T06:45:34.865Z,31.80
2023-01-04T06:48:09.441Z,31.50
2023-01-04T06:50:41.801Z,23.90
2023-01-04T06:53:16.865Z,34.60
2023-01-04T06:55:51.926Z,100.70
2023-01-04T06:58:24.184Z,47.20
2023-01-04T07:00:57.958Z,46.80
2023-01-04T07:03:30.442Z,67.80
2023-01-04T07:06:15.299Z,49.10
2023-01-04T07:08:47.522Z,32.80
2023-01-04T07:11:20.042Z,37.80
2023-01-04T07:13:53.047Z,39.70
2023-01-04T07:16:25.899Z,30.60
2023-01-04T07:18:58.147Z,27.20
2023-01-04T07:21:30.401Z,27.60
2023-01-04T07:24:05.481Z,40.10
2023-01-04T07:26:38.118Z,38.80
2023-01-04T07:29:20.413Z,33.20
2023-01-04T07:31:53.839Z,31.50
2023-01-04T07:34:29.788Z,34.80
2023-01-04T07:37:02.005Z,39.80
2023-01-04T07:39:34.596Z,59.00
2023-01-04T07:42:22.133Z,53.50
2023-01-04T07:44:56.500Z,48.80
2023-01-04T07:47:30.450Z,29.50
2023-01-04T07:50:06.808Z,28.10
2023-01-04T07:52:42.233Z,29.10
2023-01-04T07:55:14.698Z,29.50
2023-01-04T07:58:40.134Z,27.50
2023-01-04T08:01:41.460Z,34.10
2023-01-04T08:04:18.195Z,31.60
2023-01-04T08:07:20.831Z,25.00
2023-01-04T08:10:19.714Z,25.90
2023-01-04T08:13:15.695Z,32.50
2023-01-04T08:15:53.510Z,31.50
2023-01-04T08:18:26.733Z,29.10
2023-01-04T08:21:07.869Z,30.50
2023-01-04T08:23:40.359Z,27.10
2023-01-04T08:26:22.809Z,22.50
2023-01-04T08:31:33.776Z,21.40
2023-01-04T08:34:07.664Z,21.00
2023-01-04T08:36:56.680Z,18.10
2023-01-04T08:39:33.650Z,13.40
2023-01-04T08:42:19.462Z,14.10
2023-01-04T08:44:59.247Z,12.70
2023-01-04T08:47:33.139Z,12.40
2023-01-04T08:50:10.362Z,11.10
2023-01-04T08:52:44.636Z,12.50
2023-01-04T08:55:23.946Z,9.70
2023-01-04T08:58:00.759Z,10.50
2023-01-04T09:00:32.996Z,11.10
2023-01-04T09:03:06.102Z,9.40
2023-01-04T09:05:41.566Z,10.90
2023-01-04T09:08:14.211Z,10.80
2023-01-04T09:10:49.793Z,11.10
2023-01-04T09:13:22.075Z,14.90
2023-01-04T09:15:54.399Z,9.20
2023-01-04T09:18:32.872Z,21.40
2023-01-04T09:21:10.455Z,26.80
2023-01-04T09:23:55.088Z,15.00
2023-01-04T09:26:27.403Z,14.50
2023-01-04T09:29:01.607Z,11.60
2023-01-04T09:31:46.331Z,16.80
2023-01-04T09:34:46.918Z,17.10
2023-01-04T09:37:22.307Z,14.50
2023-01-04T09:39:54.676Z,12.20
2023-01-04T09:42:37.220Z,14.20
2023-01-04T09:45:24.482Z,9.40
2023-01-04T09:48:03.230Z,10.10
2023-01-04T09:50:43.883Z,8.80
2023-01-04T09:53:26.460Z,8.90
2023-01-04T09:56:03.557Z,7.80
2023-01-04T09:58:39.548Z,7.50
2023-01-04T10:01:18.123Z,5.90
2023-01-04T10:04:01.869Z,9.50
2023-01-04T10:06:34.820Z,7.60
2023-01-04T10:09:15.598Z,7.30
2023-01-04T10:12:13.177Z,6.60
2023-01-04T10:15:05.645Z,5.60
2023-01-04T10:19:23.624Z,5.50
2023-01-04T10:21:31.417Z,6.20
2023-01-04T10:24:30.677Z,5.60
2023-01-04T10:27:15.535Z,7.60
2023-01-04T10:29:58.210Z,7.90
2023-01-04T10:32:44.805Z,6.20
2023-01-04T10:35:26.090Z,6.40
2023-01-04T10:38:01.743Z,7.40
2023-01-04T10:40:46.044Z,6.50
2023-01-04T10:43:29.113Z,4.90
2023-01-04T10:46:07.444Z,6.10
2023-01-04T10:48:51.606Z,6.20
2023-01-04T10:51:48.363Z,5.80
2023-01-04T10:54:27.940Z,5.40
2023-01-04T10:57:07.127Z,6.30
2023-01-04T10:59:58.995Z,6.60
2023-01-04T11:05:19.523Z,6.00
2023-01-04T11:07:59.181Z,6.20
2023-01-04T11:10:37.670Z,7.30
2023-01-04T11:13:19.277Z,6.00
2023-01-04T11:15:55.562Z,6.10
2023-01-04T11:18:29.847Z,9.10
2023-01-04T11:21:07.928Z,8.10
2023-01-04T11:23:40.327Z,6.60
2023-01-04T11:26:16.021Z,7.00
2023-01-04T11:28:52.956Z,6.20
2023-01-04T11:31:32.193Z,6.50
2023-01-04T11:34:07.806Z,6.10
2023-01-04T11:36:45.147Z,6.10
2023-01-04T11:39:25.579Z,9.30
2023-01-04T11:42:04.672Z,5.90
2023-01-04T11:44:49.788Z,5.10
2023-01-04T11:47:26.688Z,5.20
2023-01-04T11:50:01.509Z,6.10
2023-01-04T11:52:37.106Z,4.60
2023-01-04T11:55:29.271Z,7.40
2023-01-04T11:58:33.411Z,6.40
2023-01-04T12:01:07.112Z,5.20
2023-01-04T12:03:40.709Z,5.90
2023-01-04T12:06:20.360Z,5.70
2023-01-04T12:08:54.979Z,6.20
2023-01-04T12:11:35.655Z,6.50
2023-01-04T12:14:20.014Z,7.00
2023-01-04T12:17:03.653Z,5.20
2023-01-04T12:19:38.048Z,5.70
2023-01-04T12:22:38.379Z,7.70
2023-01-04T12:25:28.809Z,8.00
2023-01-04T12:28:01.250Z,7.90
2023-01-04T12:30:44.550Z,7.60
2023-01-04T12:33:46.931Z,6.20
2023-01-04T12:36:23.652Z,6.10
2023-01-04T12:39:39.348Z,6.10
2023-01-04T12:42:17.941Z,6.30
2023-01-04T12:45:20.522Z,6.00
2023-01-04T12:48:14.916Z,6.10
2023-01-04T12:51:33.875Z,7.10
2023-01-04T12:54:23.593Z,6.30
2023-01-04T12:57:37.265Z,8.30
2023-01-04T13:00:22.619Z,6.40
2023-01-04T13:03:48.495Z,7.80
2023-01-04T13:06:24.371Z,7.00
2023-01-04T13:08:56.803Z,9.10
2023-01-04T13:11:47.559Z,8.40
2023-01-04T13:15:14.488Z,6.40
2023-01-04T13:17:52.078Z,5.70
2023-01-04T13:20:48.218Z,7.10
2023-01-04T13:23:52.982Z,8.60
2023-01-04T13:26:49.671Z,6.40
2023-01-04T13:29:24.773Z,7.60
2023-01-04T13:32:01.551Z,9.70
2023-01-04T13:34:45.744Z,8.60
2023-01-04T13:37:30.360Z,7.50
2023-01-04T13:40:26.173Z,8.80
2023-01-04T13:43:14.436Z,7.20
2023-01-04T13:46:07.762Z,8.30
2023-01-04T13:48:44.391Z,13.50
2023-01-04T13:51:35.932Z,16.90
2023-01-04T13:54:22.970Z,11.50
2023-01-04T13:57:09.090Z,9.10
2023-01-04T13:59:44.365Z,11.40
2023-01-04T14:02:23.601Z,11.10
2023-01-04T14:04:57.164Z,12.00
2023-01-04T14:07:31.472Z,11.50
2023-01-04T14:10:18.024Z,8.40
2023-01-04T14:12:54.023Z,12.80
2023-01-04T14:15:27.463Z,12.20
2023-01-04T14:18:02.945Z,11.20
2023-01-04T14:20:51.542Z,13.10
2023-01-04T14:26:07.219Z,13.80
2023-01-04T14:28:54.947Z,12.50
2023-01-04T14:31:36.081Z,11.10
2023-01-04T14:34:16.861Z,13.30
2023-01-04T14:37:05.503Z,11.70
2023-01-04T14:39:40.286Z,14.60
2023-01-04T14:42:32.426Z,12.90
2023-01-04T14:45:10.477Z,9.30
2023-01-04T14:47:43.143Z,13.20
2023-01-04T14:50:17.847Z,11.20
2023-01-04T14:52:55.783Z,13.40
2023-01-04T14:55:54.852Z,12.50
2023-01-04T14:58:27.164Z,15.00
2023-01-04T15:00:59.350Z,16.40
2023-01-04T15:03:34.981Z,16.80
2023-01-04T15:06:07.720Z,13.60
2023-01-04T15:08:43.026Z,16.70
2023-01-04T15:11:19.781Z,12.10
2023-01-04T15:13:52.261Z,18.80
2023-01-04T15:16:24.505Z,14.10
2023-01-04T15:18:57.776Z,13.40
2023-01-04T15:21:40.679Z,14.70
2023-01-04T15:24:18.339Z,14.50
2023-01-04T15:26:50.575Z,10.70
2023-01-04T15:29:25.776Z,11.10
2023-01-04T15:32:00.758Z,10.80
2023-01-04T15:34:33.403Z,11.40
2023-01-04T15:37:05.794Z,9.60
2023-01-04T15:39:38.143Z,16.10
2023-01-04T15:42:30.355Z,21.80
2023-01-04T15:45:02.548Z,17.50
2023-01-04T15:47:35.243Z,18.00
2023-01-04T15:50:09.131Z,20.80
2023-01-04T15:52:56.476Z,18.60
2023-01-04T15:55:36.344Z,20.10
2023-01-04T15:58:09.110Z,18.20
2023-01-04T16:00:41.773Z,16.20
2023-01-04T16:03:13.899Z,10.90
2023-01-04T16:05:46.228Z,11.00
2023-01-04T16:08:18.500Z,9.30
2023-01-04T16:10:50.626Z,10.90
2023-01-04T16:13:24.309Z,24.80
2023-01-04T16:16:03.107Z,18.30
2023-01-04T16:18:36.041Z,10.70
2023-01-04T16:21:12.270Z,8.40
2023-01-04T16:23:54.893Z,9.20
2023-01-04T16:26:30.780Z,10.90
2023-01-04T16:29:03.226Z,15.40
2023-01-04T16:31:49.670Z,16.60
2023-01-04T16:34:22.239Z,17.20
2023-01-04T16:36:55.288Z,20.90
2023-01-04T16:39:57.190Z,16.10
2023-01-04T16:42:25.671Z,15.00
2023-01-04T16:44:58.001Z,14.20
2023-01-04T16:47:50.486Z,12.30
2023-01-04T16:50:23.315Z,10.40
2023-01-04T16:52:55.489Z,10.40
2023-01-04T16:55:27.937Z,7.40
2023-01-04T16:58:00.215Z,8.60
2023-01-04T17:00:32.465Z,7.70
2023-01-04T17:03:07.904Z,7.70
2023-01-04T17:05:43.261Z,11.40
2023-01-04T17:08:15.911Z,12.20
2023-01-04T17:10:51.177Z,17.80
2023-01-04T17:13:23.695Z,15.50
2023-01-04T17:15:59.629Z,15.30
2023-01-04T17:18:35.439Z,14.40
2023-01-04T17:21:33.312Z,21.20
2023-01-04T17:24:04.047Z,19.90
2023-01-04T17:26:36.369Z,23.00
2023-01-04T17:29:08.847Z,15.40
2023-01-04T17:31:43.938Z,12.80
2023-01-04T17:34:22.656Z,15.30
2023-01-04T17:36:56.424Z,18.40
2023-01-04T17:39:31.810Z,16.10
2023-01-04T17:42:04.082Z,16.70
2023-01-04T17:44:36.364Z,14.80
2023-01-04T17:47:20.232Z,17.20
2023-01-04T17:49:55.269Z,11.80
2023-01-04T17:52:31.213Z,13.20
2023-01-04T17:55:07.757Z,16.20
2023-01-04T17:57:40.056Z,19.60
2023-01-04T18:00:15.178Z,15.60
2023-01-04T18:02:47.688Z,17.10
2023-01-04T18:05:20.092Z,14.70
2023-01-04T18:07:52.505Z,14.50
2023-01-04T18:10:41.336Z,16.70
2023-01-04T18:13:22.746Z,14.00
2023-01-04T18:16:22.492Z,17.40
2023-01-04T18:18:53.544Z,18.40
2023-01-04T18:21:30.642Z,15.90
2023-01-04T18:29:53.510Z,15.90
2023-01-04T18:32:27.496Z,18.00
2023-01-04T18:35:04.545Z,17.50
2023-01-04T18:37:39.857Z,15.60
2023-01-04T18:40:20.343Z,19.50
2023-01-04T18:42:52.721Z,11.40
2023-01-04T18:45:24.981Z,12.40
2023-01-04T18:47:57.524Z,11.90
2023-01-04T18:50:35.602Z,12.50
2023-01-04T18:53:07.821Z,13.70
2023-01-04T18:55:44.959Z,12.10
2023-01-04T18:58:20.138Z,17.80
2023-01-04T19:00:59.574Z,20.00
2023-01-04T19:03:37.140Z,18.60
2023-01-04T19:06:12.467Z,17.30
2023-01-04T19:08:46.444Z,17.80
2023-01-04T19:11:24.364Z,14.70
2023-01-04T19:13:59.531Z,15.50
2023-01-04T19:16:32.189Z,16.80
2023-01-04T19:19:04.740Z,19.10
2023-01-04T19:21:37.974Z,18.30
2023-01-04T19:24:23.360Z,21.80
2023-01-04T19:27:05.778Z,20.30
2023-01-04T19:29:41.123Z,11.70
2023-01-04T19:32:13.528Z,15.40
2023-01-04T19:34:48.657Z,11.30
2023-01-04T19:37:21.137Z,11.10
2023-01-04T19:39:53.823Z,11.00
2023-01-04T19:42:31.924Z,16.90
2023-01-04T19:45:04.264Z,18.30
2023-01-04T19:47:36.773Z,15.30
2023-01-04T19:50:11.194Z,17.90
2023-01-04T19:52:43.529Z,22.30
2023-01-04T19:55:15.783Z,14.30
2023-01-04T19:57:48.068Z,14.20
2023-01-04T20:00:20.991Z,14.00
2023-01-04T20:02:53.631Z,14.20
2023-01-04T20:05:28.968Z,12.10
2023-01-04T20:08:01.083Z,11.50
2023-01-04T20:10:33.383Z,13.20
2023-01-04T20:13:05.915Z,8.90
2023-01-04T20:15:40.624Z,11.20
2023-01-04T20:18:14.308Z,8.50
2023-01-04T20:20:50.629Z,11.50
2023-01-04T20:25:57.654Z,12.00
2023-01-04T20:28:30.029Z,11.50
2023-01-04T20:31:06.854Z,12.80
2023-01-04T20:33:39.427Z,21.50
2023-01-04T20:36:26.429Z,23.00
2023-01-04T20:39:00.282Z,17.30
2023-01-04T20:41:59.726Z,16.40
2023-01-04T20:44:32.288Z,20.50
2023-01-04T20:47:04.760Z,23.70
2023-01-04T20:49:37.289Z,14.00
2023-01-04T20:52:09.811Z,20.10
2023-01-04T20:54:54.568Z,20.20
2023-01-04T20:57:26.950Z,23.00
2023-01-04T20:59:59.299Z,18.60
2023-01-04T21:02:37.734Z,19.00
2023-01-04T21:05:11.953Z,16.20
2023-01-04T21:07:53.435Z,19.80
2023-01-04T21:10:25.589Z,21.30
2023-01-04T21:12:57.878Z,18.40
2023-01-04T21:15:36.326Z,19.90
2023-01-04T21:18:11.190Z,16.10
2023-01-04T21:20:44.978Z,11.90
2023-01-04T21:23:19.248Z,10.10
2023-01-04T21:25:58.934Z,9.20
2023-01-04T21:28:32.290Z,10.20
2023-01-04T21:31:09.871Z,7.60
2023-01-04T21:33:44.925Z,10.50
2023-01-04T21:36:20.322Z,14.20
2023-01-04T21:38:56.569Z,16.60
2023-01-04T21:41:29.217Z,15.30
2023-01-04T21:44:02.537Z,11.70
2023-01-04T21:46:34.924Z,8.40
2023-01-04T21:49:07.282Z,9.60
2023-01-04T21:51:39.407Z,17.20
2023-01-04T21:54:11.674Z,13.90
2023-01-04T21:56:46.844Z,11.10
2023-01-04T21:59:19.418Z,10.50
2023-01-04T22:01:54.369Z,8.20
2023-01-04T22:04:29.874Z,7.40
2023-01-04T22:07:02.455Z,6.20
2023-01-04T22:09:34.746Z,6.20
2023-01-04T22:12:08.028Z,6.40
2023-01-04T22:14:40.327Z,7.30
2023-01-04T22:17:12.506Z,6.10
2023-01-04T22:19:44.665Z,7.10
2023-01-04T22:22:16.783Z,7.90
2023-01-04T22:24:48.942Z,7.40
2023-01-04T22:27:21.136Z,5.70
2023-01-04T22:29:53.275Z,6.10
2023-01-04T22:32:25.500Z,6.60
2023-01-04T22:34:57.705Z,6.20
2023-01-04T22:37:30.066Z,4.10
2023-01-04T22:40:02.520Z,5.50
2023-01-04T22:42:34.765Z,8.50
2023-01-04T22:45:13.413Z,7.60
2023-01-04T22:47:55.010Z,11.00
2023-01-04T22:50:27.301Z,20.00
2023-01-04T22:52:59.531Z,19.20
2023-01-04T22:56:00.022Z,10.90
2023-01-04T22:58:24.080Z,18.40
2023-01-04T23:00:56.446Z,15.70
2023-01-04T23:03:28.918Z,18.90
2023-01-04T23:06:01.349Z,17.70
2023-01-04T23:08:33.560Z,19.60
2023-01-04T23:11:10.708Z,9.90
2023-01-04T23:13:43.684Z,9.90
2023-01-04T23:16:32.023Z,11.40
2023-01-04T23:19:09.278Z,11.20
2023-01-04T23:21:41.926Z,9.70
2023-01-04T23:24:23.837Z,17.00
2023-01-04T23:26:56.112Z,5.50
2023-01-04T23:29:31.186Z,5.60
2023-01-04T23:32:03.601Z,7.10
2023-01-04T23:34:35.883Z,7.00
2023-01-04T23:37:08.057Z,7.00
2023-01-04T23:39:40.532Z,5.10
2023-01-04T23:42:12.789Z,4.70
2023-01-04T23:44:45.278Z,7.10
2023-01-04T23:47:17.754Z,6.00
2023-01-04T23:49:49.905Z,5.60
2023-01-04T23:52:25.282Z,6.50
2023-01-04T23:54:57.531Z,6.20
2023-01-04T23:57:29.792Z,11.30
